createdAt,value
2023-04-30T00:00:35.763Z,8.77
2023-04-30T00:03:02.468Z,8.40
2023-04-30T00:05:28.988Z,9.45
2023-04-30T00:07:55.364Z,8.48
2023-04-30T00:10:21.771Z,8.82
2023-04-30T00:12:48.156Z,8.27
2023-04-30T00:15:14.694Z,9.05
2023-04-30T00:17:41.261Z,8.40
2023-04-30T00:20:08.324Z,9.35
2023-04-30T00:22:34.888Z,9.07
2023-04-30T00:25:01.514Z,9.10
2023-04-30T00:27:28.134Z,8.35
2023-04-30T00:29:55.557Z,8.23
2023-04-30T00:32:22.413Z,8.55
2023-04-30T00:34:49.001Z,8.65
2023-04-30T00:37:15.546Z,8.27
2023-04-30T00:39:41.921Z,8.38
2023-04-30T00:42:08.320Z,8.38
2023-04-30T00:44:34.740Z,7.68
2023-04-30T00:47:01.205Z,8.38
2023-04-30T00:49:27.637Z,8.13
2023-04-30T00:51:54.493Z,8.65
2023-04-30T00:54:21.410Z,8.10
2023-04-30T00:56:47.841Z,9.90
2023-04-30T00:59:14.288Z,9.18
2023-04-30T01:01:41.170Z,9.35
2023-04-30T01:04:07.622Z,10.23
2023-04-30T01:06:34.260Z,8.82
2023-04-30T01:09:01.120Z,8.75
2023-04-30T01:12:01.894Z,8.52
2023-04-30T01:14:34.025Z,9.02
2023-04-30T01:17:06.691Z,9.38
2023-04-30T01:19:43.665Z,9.32
2023-04-30T01:22:30.282Z,9.00
2023-04-30T01:25:08.953Z,8.55
2023-04-30T01:28:06.859Z,9.90
2023-04-30T01:30:34.568Z,7.75
2023-04-30T01:33:01.326Z,8.73
2023-04-30T01:35:41.745Z,9.35
2023-04-30T01:38:28.797Z,8.80
2023-04-30T01:41:04.881Z,8.18
2023-04-30T01:43:44.967Z,8.93
2023-04-30T01:46:21.623Z,8.48
2023-04-30T01:49:13.656Z,8.35
2023-04-30T01:51:42.186Z,8.52
2023-04-30T01:54:19.454Z,8.73
2023-04-30T01:56:52.193Z,8.13
2023-04-30T01:59:18.908Z,8.38
2023-04-30T02:01:45.357Z,8.60
2023-04-30T02:04:11.721Z,8.18
2023-04-30T02:06:38.189Z,8.25
2023-04-30T02:09:06.858Z,7.40
2023-04-30T02:11:33.252Z,8.20
2023-04-30T02:13:59.616Z,7.85
2023-04-30T02:16:26.085Z,8.15
2023-04-30T02:18:52.552Z,7.93
2023-04-30T02:21:19.318Z,7.68
2023-04-30T02:23:45.913Z,7.88
2023-04-30T02:26:12.304Z,7.93
2023-04-30T02:28:38.666Z,7.25
2023-04-30T02:31:05.101Z,8.07
2023-04-30T02:33:31.686Z,7.97
2023-04-30T02:35:59.793Z,8.02
2023-04-30T02:38:26.455Z,8.50
2023-04-30T02:40:53.067Z,8.85
2023-04-30T02:43:19.443Z,9.20
2023-04-30T02:45:45.810Z,8.90
2023-04-30T02:48:12.521Z,7.75
2023-04-30T02:50:38.978Z,7.80
2023-04-30T02:53:05.394Z,8.60
2023-04-30T02:55:32.696Z,8.20
2023-04-30T02:57:59.048Z,7.55
2023-04-30T03:00:25.424Z,7.30
2023-04-30T03:02:51.923Z,7.78
2023-04-30T03:05:18.436Z,7.53
2023-04-30T03:07:44.840Z,8.18
2023-04-30T03:10:11.488Z,7.20
2023-04-30T03:12:37.842Z,7.85
2023-04-30T03:15:04.670Z,7.65
2023-04-30T03:17:31.063Z,8.20
2023-04-30T03:19:57.549Z,7.95
2023-04-30T03:22:26.482Z,7.70
2023-04-30T03:24:54.153Z,6.15
2023-04-30T03:27:20.867Z,7.07
2023-04-30T03:29:47.221Z,7.30
2023-04-30T03:32:13.629Z,7.22
2023-04-30T03:34:40.006Z,7.07
2023-04-30T03:37:06.389Z,7.25
2023-04-30T03:39:32.762Z,8.35
2023-04-30T03:41:59.140Z,7.72
2023-04-30T03:44:25.562Z,7.32
2023-04-30T03:46:51.910Z,6.45
2023-04-30T03:49:18.284Z,7.75
2023-04-30T03:51:44.955Z,6.68
2023-04-30T03:54:11.306Z,7.43
2023-04-30T03:56:38.098Z,7.03
2023-04-30T03:59:05.402Z,8.05
2023-04-30T04:01:31.796Z,8.25
2023-04-30T04:03:58.849Z,7.32
2023-04-30T04:06:25.357Z,8.23
2023-04-30T04:08:51.803Z,7.60
2023-04-30T04:11:18.221Z,7.40
2023-04-30T04:13:44.585Z,8.05
2023-04-30T04:16:11.222Z,7.63
2023-04-30T04:18:37.686Z,7.57
2023-04-30T04:21:04.308Z,8.40
2023-04-30T04:23:30.727Z,7.65
2023-04-30T04:25:57.523Z,7.95
2023-04-30T04:28:24.087Z,7.63
2023-04-30T04:30:50.464Z,7.40
2023-04-30T04:33:17.261Z,7.57
2023-04-30T04:35:43.672Z,7.55
2023-04-30T04:38:10.113Z,8.02
2023-04-30T04:40:37.207Z,7.78
2023-04-30T04:43:03.751Z,8.35
2023-04-30T04:45:31.376Z,7.90
2023-04-30T04:47:57.796Z,9.10
2023-04-30T04:50:24.400Z,8.15
2023-04-30T04:52:50.873Z,8.60
2023-04-30T04:55:17.621Z,7.22
2023-04-30T04:57:43.984Z,8.07
2023-04-30T05:00:11.718Z,8.27
2023-04-30T05:02:38.191Z,8.75
2023-04-30T05:05:04.888Z,7.88
2023-04-30T05:07:31.547Z,9.77
2023-04-30T05:09:57.891Z,9.18
2023-04-30T05:12:24.321Z,8.52
2023-04-30T05:14:51.235Z,8.95
2023-04-30T05:17:17.696Z,10.10
2023-04-30T05:19:44.182Z,8.93
2023-04-30T05:22:10.808Z,9.82
2023-04-30T05:24:37.226Z,9.35
2023-04-30T05:27:05.441Z,9.48
2023-04-30T05:29:31.803Z,9.82
2023-04-30T05:31:58.312Z,10.35
2023-04-30T05:34:24.810Z,10.77
2023-04-30T05:36:51.365Z,10.48
2023-04-30T05:39:17.773Z,10.50
2023-04-30T05:41:44.291Z,11.55
2023-04-30T05:44:10.735Z,11.57
2023-04-30T05:46:37.180Z,10.73
2023-04-30T05:49:03.720Z,10.38
2023-04-30T05:51:30.214Z,11.30
2023-04-30T05:53:57.488Z,11.30
2023-04-30T05:56:24.805Z,11.13
2023-04-30T05:58:52.476Z,10.18
2023-04-30T06:01:22.170Z,9.73
2023-04-30T06:03:48.720Z,10.48
2023-04-30T06:06:15.246Z,10.45
2023-04-30T06:08:45.337Z,12.82
2023-04-30T06:11:12.935Z,10.82
2023-04-30T06:13:39.677Z,10.38
2023-04-30T06:16:07.281Z,11.20
2023-04-30T06:18:33.870Z,10.27
2023-04-30T06:21:00.413Z,10.75
2023-04-30T06:23:26.811Z,9.15
2023-04-30T06:25:53.211Z,8.88
2023-04-30T06:28:19.638Z,8.63
2023-04-30T06:30:46.183Z,10.25
2023-04-30T06:33:12.547Z,8.88
2023-04-30T06:35:39.009Z,8.20
2023-04-30T06:38:05.441Z,8.63
2023-04-30T06:40:31.823Z,8.60
2023-04-30T06:42:58.338Z,8.93
2023-04-30T06:45:24.766Z,7.90
2023-04-30T06:47:51.937Z,7.93
2023-04-30T06:50:18.760Z,7.43
2023-04-30T06:52:45.169Z,7.10
2023-04-30T06:55:11.550Z,7.47
2023-04-30T06:57:37.940Z,7.13
2023-04-30T07:00:06.421Z,7.30
2023-04-30T07:02:33.201Z,6.28
2023-04-30T07:04:59.681Z,8.18
2023-04-30T07:07:26.190Z,7.20
2023-04-30T07:09:53.762Z,6.85
2023-04-30T07:12:21.331Z,6.43
2023-04-30T07:14:47.814Z,6.10
2023-04-30T07:17:14.207Z,6.32
2023-04-30T07:19:40.655Z,6.50
2023-04-30T07:22:07.071Z,6.35
2023-04-30T07:24:34.179Z,6.43
2023-04-30T07:27:03.152Z,6.05
2023-04-30T07:29:30.193Z,5.43
2023-04-30T07:31:56.873Z,6.03
2023-04-30T07:34:23.372Z,7.10
2023-04-30T07:36:50.269Z,5.63
2023-04-30T07:39:17.798Z,6.28
2023-04-30T07:41:44.230Z,6.07
2023-04-30T07:44:11.956Z,5.65
2023-04-30T07:46:38.550Z,5.68
2023-04-30T07:49:05.029Z,5.40
2023-04-30T07:51:32.906Z,5.72
2023-04-30T07:54:00.167Z,5.25
2023-04-30T07:56:26.704Z,4.50
2023-04-30T07:58:53.129Z,4.45
2023-04-30T08:01:19.504Z,4.22
2023-04-30T08:03:46.513Z,3.42
2023-04-30T08:06:13.136Z,3.20
2023-04-30T08:08:39.746Z,3.53
2023-04-30T08:11:06.250Z,3.05
2023-04-30T08:13:32.753Z,3.40
2023-04-30T08:15:59.139Z,2.92
2023-04-30T08:18:25.551Z,3.00
2023-04-30T08:20:52.044Z,2.83
2023-04-30T08:23:18.514Z,2.53
2023-04-30T08:25:44.920Z,2.50
2023-04-30T08:28:11.287Z,3.20
2023-04-30T08:30:37.743Z,2.53
2023-04-30T08:33:04.306Z,2.28
2023-04-30T08:35:30.805Z,2.67
2023-04-30T08:37:57.191Z,2.63
2023-04-30T08:40:33.805Z,2.42
2023-04-30T08:43:11.583Z,2.80
2023-04-30T08:45:38.059Z,2.45
2023-04-30T08:48:05.367Z,2.47
2023-04-30T08:50:32.106Z,3.00
2023-04-30T08:52:59.032Z,2.65
2023-04-30T08:55:27.451Z,2.55
2023-04-30T08:57:53.926Z,2.70
2023-04-30T09:00:20.489Z,1.88
2023-04-30T09:02:48.329Z,2.70
2023-04-30T09:05:15.679Z,2.63
2023-04-30T09:07:55.617Z,2.28
2023-04-30T09:10:32.320Z,2.55
2023-04-30T09:13:06.644Z,2.13
2023-04-30T09:15:34.683Z,2.65
2023-04-30T09:18:17.325Z,2.25
2023-04-30T09:20:58.416Z,2.30
2023-04-30T09:23:25.313Z,2.88
2023-04-30T09:25:51.757Z,2.75
2023-04-30T09:28:18.547Z,2.60
2023-04-30T09:30:45.132Z,2.95
2023-04-30T09:33:12.531Z,2.50
2023-04-30T09:35:41.587Z,2.45
2023-04-30T09:38:08.714Z,2.63
2023-04-30T09:40:40.342Z,2.75
2023-04-30T09:45:48.370Z,2.08
2023-04-30T09:48:18.927Z,2.45
2023-04-30T09:50:46.097Z,2.55
2023-04-30T09:53:14.236Z,3.05
2023-04-30T09:55:45.796Z,2.22
2023-04-30T09:58:12.921Z,2.47
2023-04-30T10:00:39.955Z,3.13
2023-04-30T10:03:11.700Z,2.25
2023-04-30T10:08:13.807Z,2.60
2023-04-30T10:10:43.225Z,2.92
2023-04-30T10:13:11.818Z,2.88
2023-04-30T10:15:47.862Z,3.55
2023-04-30T10:18:23.877Z,3.33
2023-04-30T10:20:51.809Z,3.65
2023-04-30T10:23:18.511Z,2.85
2023-04-30T10:25:45.551Z,3.25
2023-04-30T10:28:12.602Z,3.00
2023-04-30T10:30:39.186Z,3.22
2023-04-30T10:33:49.649Z,3.13
2023-04-30T10:36:38.496Z,3.67
2023-04-30T10:39:05.219Z,3.08
2023-04-30T10:41:31.947Z,2.65
2023-04-30T10:44:02.311Z,3.47
2023-04-30T10:46:29.060Z,2.95
2023-04-30T10:48:55.767Z,3.42
2023-04-30T10:51:22.642Z,3.08
2023-04-30T10:53:51.340Z,3.83
2023-04-30T10:56:32.270Z,2.92
2023-04-30T10:59:01.188Z,3.35
2023-04-30T11:01:28.383Z,3.20
2023-04-30T11:04:10.946Z,3.28
2023-04-30T11:06:52.546Z,3.08
2023-04-30T11:09:18.998Z,3.35
2023-04-30T11:11:46.465Z,3.08
2023-04-30T11:14:13.391Z,3.70
2023-04-30T11:16:41.286Z,3.03
2023-04-30T11:19:13.243Z,3.17
2023-04-30T11:22:05.302Z,3.22
2023-04-30T11:24:59.757Z,3.08
2023-04-30T11:27:30.832Z,3.67
2023-04-30T11:29:58.286Z,3.35
2023-04-30T11:32:27.433Z,2.97
2023-04-30T11:34:54.614Z,3.40
2023-04-30T11:37:43.676Z,3.30
2023-04-30T11:40:11.966Z,3.03
2023-04-30T11:42:39.821Z,2.55
2023-04-30T11:45:23.662Z,2.88
2023-04-30T11:47:52.040Z,2.90
2023-04-30T11:50:29.408Z,2.80
2023-04-30T11:52:57.350Z,3.13
2023-04-30T11:55:25.298Z,3.35
2023-04-30T11:57:55.687Z,3.35
2023-04-30T12:00:27.729Z,3.05
2023-04-30T12:02:56.122Z,2.85
2023-04-30T12:05:26.769Z,2.95
2023-04-30T12:07:57.511Z,2.63
2023-04-30T12:10:25.671Z,2.30
2023-04-30T12:12:53.238Z,2.35
2023-04-30T12:15:26.208Z,2.80
2023-04-30T12:17:54.644Z,2.35
2023-04-30T12:20:22.522Z,2.40
2023-04-30T12:22:49.148Z,2.78
2023-04-30T12:25:17.863Z,2.17
2023-04-30T12:27:51.175Z,2.53
2023-04-30T12:30:22.029Z,2.03
2023-04-30T12:32:53.367Z,1.90
2023-04-30T12:35:21.559Z,2.30
2023-04-30T12:37:52.586Z,2.10
2023-04-30T12:40:27.059Z,2.60
2023-04-30T12:43:01.241Z,2.53
2023-04-30T12:45:52.847Z,2.10
2023-04-30T12:48:21.212Z,1.85
2023-04-30T12:50:53.625Z,2.58
2023-04-30T12:53:21.568Z,2.85
2023-04-30T12:56:15.882Z,2.47
2023-04-30T12:58:45.441Z,2.53
2023-04-30T13:01:15.308Z,2.60
2023-04-30T13:03:42.314Z,1.92
2023-04-30T13:06:10.440Z,2.55
2023-04-30T13:08:45.669Z,2.30
2023-04-30T13:11:24.154Z,2.08
2023-04-30T13:13:50.585Z,2.08
2023-04-30T13:16:17.186Z,2.30
2023-04-30T13:18:43.949Z,2.05
2023-04-30T13:21:10.687Z,2.20
2023-04-30T13:23:48.626Z,2.05
2023-04-30T13:26:18.820Z,2.20
2023-04-30T13:28:45.242Z,2.10
2023-04-30T13:31:11.677Z,1.95
2023-04-30T13:33:38.145Z,1.75
2023-04-30T13:36:04.564Z,1.80
2023-04-30T13:38:30.931Z,2.10
2023-04-30T13:40:57.352Z,1.77
2023-04-30T13:43:23.862Z,1.63
2023-04-30T13:45:51.196Z,1.55
2023-04-30T13:48:17.580Z,1.95
2023-04-30T13:50:44.041Z,1.50
2023-04-30T13:53:10.470Z,1.42
2023-04-30T13:55:36.906Z,1.60
2023-04-30T13:58:03.559Z,1.42
2023-04-30T14:00:30.017Z,1.45
2023-04-30T14:02:56.518Z,1.33
2023-04-30T14:05:23.001Z,1.50
2023-04-30T14:07:49.367Z,1.65
2023-04-30T14:10:15.822Z,1.40
2023-04-30T14:12:42.249Z,1.83
2023-04-30T14:15:09.376Z,1.35
2023-04-30T14:17:35.987Z,1.25
2023-04-30T14:20:02.543Z,1.63
2023-04-30T14:22:29.005Z,1.83
2023-04-30T14:24:55.380Z,2.20
2023-04-30T14:27:21.962Z,1.70
2023-04-30T14:29:48.407Z,1.60
2023-04-30T14:32:14.900Z,1.80
2023-04-30T14:34:41.451Z,1.42
2023-04-30T14:37:08.022Z,1.33
2023-04-30T14:39:34.410Z,1.50
2023-04-30T14:42:01.682Z,1.02
2023-04-30T14:44:28.093Z,1.52
2023-04-30T14:46:54.610Z,1.45
2023-04-30T14:49:20.999Z,4.07
2023-04-30T14:51:47.560Z,1.95
2023-04-30T14:54:13.987Z,1.55
2023-04-30T14:56:41.033Z,1.88
2023-04-30T14:59:07.473Z,1.38
2023-04-30T15:01:33.897Z,1.38
2023-04-30T15:04:00.580Z,1.25
2023-04-30T15:06:27.353Z,1.88
2023-04-30T15:08:53.923Z,1.90
2023-04-30T15:11:20.301Z,1.90
2023-04-30T15:13:46.847Z,1.75
2023-04-30T15:16:13.397Z,2.25
2023-04-30T15:18:40.341Z,2.13
2023-04-30T15:21:06.755Z,2.03
2023-04-30T15:23:33.626Z,2.03
2023-04-30T15:26:00.789Z,2.08
2023-04-30T15:28:27.273Z,2.10
2023-04-30T15:30:54.044Z,2.03
2023-04-30T15:33:20.668Z,1.80
2023-04-30T15:35:47.828Z,4.43
2023-04-30T15:38:14.260Z,3.50
2023-04-30T15:40:40.647Z,3.58
2023-04-30T15:43:07.727Z,2.50
2023-04-30T15:45:34.158Z,1.92
2023-04-30T15:48:00.849Z,1.60
2023-04-30T15:50:27.841Z,1.92
2023-04-30T15:52:54.298Z,2.25
2023-04-30T15:55:20.683Z,2.65
2023-04-30T15:57:47.314Z,2.75
2023-04-30T16:00:15.243Z,2.22
2023-04-30T16:02:41.878Z,3.15
2023-04-30T16:05:08.833Z,2.15
2023-04-30T16:07:35.402Z,2.40
2023-04-30T16:10:02.643Z,2.42
2023-04-30T16:12:29.207Z,1.90
2023-04-30T16:14:55.743Z,1.75
2023-04-30T16:17:22.188Z,2.85
2023-04-30T16:19:48.611Z,2.03
2023-04-30T16:22:17.059Z,2.15
2023-04-30T16:24:43.510Z,2.47
2023-04-30T16:27:09.983Z,2.03
2023-04-30T16:29:36.380Z,2.38
2023-04-30T16:32:02.909Z,2.28
2023-04-30T16:34:29.444Z,2.22
2023-04-30T16:36:56.081Z,1.92
2023-04-30T16:39:22.657Z,2.10
2023-04-30T16:41:49.065Z,1.63
2023-04-30T16:44:15.570Z,1.20
2023-04-30T16:46:42.013Z,1.50
2023-04-30T16:49:08.454Z,1.33
2023-04-30T16:51:34.911Z,1.92
2023-04-30T16:54:01.317Z,1.73
2023-04-30T16:56:27.723Z,1.23
2023-04-30T16:58:54.668Z,1.40
2023-04-30T17:01:21.072Z,1.90
2023-04-30T17:03:48.901Z,1.42
2023-04-30T17:06:15.551Z,1.33
2023-04-30T17:08:42.031Z,1.45
2023-04-30T17:11:08.413Z,1.52
2023-04-30T17:13:37.350Z,1.33
2023-04-30T17:16:03.890Z,1.65
2023-04-30T17:18:30.380Z,1.67
2023-04-30T17:20:56.855Z,1.58
2023-04-30T17:23:25.452Z,1.50
2023-04-30T17:25:51.891Z,1.70
2023-04-30T17:28:18.289Z,1.50
2023-04-30T17:30:45.183Z,1.73
2023-04-30T17:33:11.696Z,1.45
2023-04-30T17:35:38.115Z,1.63
2023-04-30T17:38:04.551Z,1.25
2023-04-30T17:40:31.731Z,1.60
2023-04-30T17:42:58.145Z,1.20
2023-04-30T17:45:26.681Z,1.35
2023-04-30T17:47:53.210Z,1.27
2023-04-30T17:50:19.677Z,1.35
2023-04-30T17:52:46.670Z,1.30
2023-04-30T17:55:13.692Z,1.42
2023-04-30T17:57:40.169Z,1.10
2023-04-30T18:00:07.264Z,15.30
2023-04-30T18:02:33.665Z,1.80
2023-04-30T18:05:00.045Z,1.90
2023-04-30T18:07:26.792Z,1.38
2023-04-30T18:09:53.523Z,1.58
2023-04-30T18:12:20.142Z,1.75
2023-04-30T18:14:46.627Z,1.30
2023-04-30T18:17:15.103Z,1.45
2023-04-30T18:19:44.441Z,1.48
2023-04-30T18:22:12.343Z,1.75
2023-04-30T18:24:39.116Z,1.67
2023-04-30T18:27:06.887Z,1.45
2023-04-30T18:29:33.970Z,1.50
2023-04-30T18:32:00.423Z,1.20
2023-04-30T18:34:28.123Z,1.50
2023-04-30T18:36:54.745Z,1.33
2023-04-30T18:39:22.362Z,1.42
2023-04-30T18:41:49.119Z,1.48
2023-04-30T18:44:15.630Z,1.65
2023-04-30T18:46:42.687Z,1.60
2023-04-30T18:49:09.400Z,1.50
2023-04-30T18:51:35.987Z,1.50
2023-04-30T18:54:02.437Z,1.35
2023-04-30T18:56:28.996Z,1.67
2023-04-30T18:58:55.639Z,1.55
2023-04-30T19:01:24.285Z,1.52
2023-04-30T19:03:50.953Z,1.42
2023-04-30T19:06:17.514Z,1.30
2023-04-30T19:08:46.377Z,1.40
2023-04-30T19:11:13.755Z,1.50
2023-04-30T19:13:40.287Z,1.30
2023-04-30T19:16:06.760Z,1.80
2023-04-30T19:18:34.919Z,1.40
2023-04-30T19:21:02.101Z,1.30
2023-04-30T19:23:30.715Z,1.95
2023-04-30T19:25:57.892Z,1.70
2023-04-30T19:28:24.322Z,1.63
2023-04-30T19:30:54.192Z,1.77
2023-04-30T19:33:21.601Z,1.63
2023-04-30T19:35:49.639Z,1.77
2023-04-30T19:38:16.134Z,1.50
2023-04-30T19:40:49.849Z,1.40
2023-04-30T19:43:16.452Z,1.88
2023-04-30T19:45:53.147Z,1.50
2023-04-30T19:48:21.784Z,1.30
2023-04-30T19:50:49.110Z,1.55
2023-04-30T19:53:16.470Z,1.65
2023-04-30T19:55:43.184Z,1.70
2023-04-30T19:58:09.754Z,1.60
2023-04-30T20:00:37.808Z,2.13
2023-04-30T20:03:05.411Z,1.33
2023-04-30T20:05:32.630Z,1.95
2023-04-30T20:07:59.554Z,1.60
2023-04-30T20:10:25.997Z,1.88
2023-04-30T20:12:53.444Z,1.70
2023-04-30T20:15:22.741Z,1.92
2023-04-30T20:17:50.603Z,1.77
2023-04-30T20:20:17.994Z,1.50
2023-04-30T20:22:44.434Z,1.60
2023-04-30T20:25:10.825Z,1.83
2023-04-30T20:27:37.231Z,1.67
2023-04-30T20:30:04.658Z,1.60
2023-04-30T20:32:31.640Z,1.50
2023-04-30T20:34:58.755Z,1.60
2023-04-30T20:37:25.242Z,1.63
2023-04-30T20:39:51.755Z,1.45
2023-04-30T20:42:19.232Z,1.67
2023-04-30T20:44:46.914Z,1.38
2023-04-30T20:47:14.359Z,1.77
2023-04-30T20:49:41.353Z,1.73
2023-04-30T20:52:07.798Z,1.80
2023-04-30T20:54:34.265Z,1.60
2023-04-30T20:57:00.790Z,1.50
2023-04-30T20:59:27.256Z,2.10
2023-04-30T21:01:53.961Z,1.60
2023-04-30T21:04:20.350Z,2.08
2023-04-30T21:06:46.815Z,1.95
2023-04-30T21:09:13.240Z,2.55
2023-04-30T21:11:40.417Z,1.77
2023-04-30T21:14:06.857Z,1.85
2023-04-30T21:16:33.316Z,1.60
2023-04-30T21:18:59.751Z,1.90
2023-04-30T21:21:27.420Z,1.85
2023-04-30T21:23:54.210Z,1.67
2023-04-30T21:26:21.566Z,1.80
2023-04-30T21:28:48.267Z,1.63
2023-04-30T21:31:15.100Z,1.83
2023-04-30T21:33:41.625Z,1.90
2023-04-30T21:36:08.086Z,1.92
2023-04-30T21:38:34.649Z,1.50
2023-04-30T21:41:01.384Z,1.50
2023-04-30T21:43:27.757Z,1.75
2023-04-30T21:45:54.161Z,1.83
2023-04-30T21:48:20.557Z,1.90
2023-04-30T21:50:47.821Z,1.70
2023-04-30T21:53:15.979Z,1.50
2023-04-30T21:55:42.434Z,1.95
2023-04-30T21:58:08.844Z,1.90
2023-04-30T22:00:35.902Z,1.80
2023-04-30T22:03:02.327Z,2.33
2023-04-30T22:05:28.812Z,2.13
2023-04-30T22:07:55.202Z,2.08
2023-04-30T22:10:21.625Z,1.90
2023-04-30T22:12:48.315Z,2.50
2023-04-30T22:15:14.971Z,2.45
2023-04-30T22:17:41.576Z,2.67
2023-04-30T22:20:09.777Z,2.03
2023-04-30T22:22:36.318Z,2.33
2023-04-30T22:25:02.937Z,2.10
2023-04-30T22:27:29.344Z,2.80
2023-04-30T22:29:55.935Z,2.53
2023-04-30T22:32:22.785Z,2.30
2023-04-30T22:34:50.525Z,2.42
2023-04-30T22:37:16.977Z,3.08
2023-04-30T22:39:43.374Z,3.10
2023-04-30T22:42:09.919Z,3.58
2023-04-30T22:44:36.444Z,2.75
2023-04-30T22:47:03.078Z,3.05
2023-04-30T22:49:31.974Z,2.58
2023-04-30T22:51:59.320Z,3.10
2023-04-30T22:54:25.864Z,2.72
2023-04-30T22:56:52.338Z,2.75
2023-04-30T22:59:18.795Z,2.60
2023-04-30T23:01:45.172Z,2.42
2023-04-30T23:04:12.585Z,2.70
2023-04-30T23:06:39.541Z,2.40
2023-04-30T23:09:05.933Z,2.30
2023-04-30T23:11:32.402Z,2.10
2023-04-30T23:13:58.820Z,3.22
2023-04-30T23:16:25.251Z,2.50
2023-04-30T23:18:51.858Z,2.50
2023-04-30T23:21:18.294Z,2.70
2023-04-30T23:23:44.794Z,2.45
2023-04-30T23:26:11.233Z,2.33
2023-04-30T23:28:37.954Z,2.67
2023-04-30T23:31:04.418Z,2.67
2023-04-30T23:33:30.897Z,3.00
2023-04-30T23:35:57.307Z,2.38
2023-04-30T23:38:23.709Z,2.53
2023-04-30T23:40:50.127Z,3.35
2023-04-30T23:43:16.535Z,3.05
2023-04-30T23:45:42.944Z,2.88
2023-04-30T23:48:10.336Z,3.40
2023-04-30T23:50:38.056Z,2.58
2023-04-30T23:53:04.527Z,2.88
2023-04-30T23:55:30.966Z,3.08
2023-04-30T23:57:57.446Z,3.13
